sensor_id;sensor_type;location;lat;lon;timestamp;temperature;humidity
44513;DHT22;30219;50.588;9.504;2022-07-06T00:01:33;15.80;90.20
44513;DHT22;30219;50.588;9.504;2022-07-06T00:03:59;15.60;90.60
44513;DHT22;30219;50.588;9.504;2022-07-06T00:06:26;15.30;91.00
44513;DHT22;30219;50.588;9.504;2022-07-06T00:08:51;15.20;91.20
44513;DHT22;30219;50.588;9.504;2022-07-06T00:11:17;15.30;91.20
44513;DHT22;30219;50.588;9.504;2022-07-06T00:13:43;15.30;91.30
44513;DHT22;30219;50.588;9.504;2022-07-06T00:16:08;15.20;91.40
44513;DHT22;30219;50.588;9.504;2022-07-06T00:18:34;15.30;91.40
44513;DHT22;30219;50.588;9.504;2022-07-06T00:20:59;15.40;91.30
44513;DHT22;30219;50.588;9.504;2022-07-06T00:23:25;15.40;91.30
44513;DHT22;30219;50.588;9.504;2022-07-06T00:25:51;15.40;91.50
44513;DHT22;30219;50.588;9.504;2022-07-06T00:28:17;15.50;91.50
44513;DHT22;30219;50.588;9.504;2022-07-06T00:30:42;15.50;91.60
44513;DHT22;30219;50.588;9.504;2022-07-06T00:33:08;15.50;91.80
44513;DHT22;30219;50.588;9.504;2022-07-06T00:35:34;15.60;91.60
44513;DHT22;30219;50.588;9.504;2022-07-06T00:37:59;15.50;91.70
44513;DHT22;30219;50.588;9.504;2022-07-06T00:40:25;15.50;91.90
44513;DHT22;30219;50.588;9.504;2022-07-06T00:42:51;15.50;91.90
44513;DHT22;30219;50.588;9.504;2022-07-06T00:45:18;15.40;92.00
44513;DHT22;30219;50.588;9.504;2022-07-06T00:47:44;15.40;92.00
44513;DHT22;30219;50.588;9.504;2022-07-06T00:50:12;15.30;92.50
44513;DHT22;30219;50.588;9.504;2022-07-06T00:52:53;15.30;92.70
44513;DHT22;30219;50.588;9.504;2022-07-06T00:55:22;15.20;92.70
44513;DHT22;30219;50.588;9.504;2022-07-06T00:57:48;15.20;92.90
44513;DHT22;30219;50.588;9.504;2022-07-06T01:00:16;15.20;93.10
44513;DHT22;30219;50.588;9.504;2022-07-06T01:02:42;15.30;93.00
44513;DHT22;30219;50.588;9.504;2022-07-06T01:05:11;15.30;93.00
44513;DHT22;30219;50.588;9.504;2022-07-06T01:07:37;15.30;93.10
44513;DHT22;30219;50.588;9.504;2022-07-06T01:10:05;15.20;93.30
44513;DHT22;30219;50.588;9.504;2022-07-06T01:12:31;15.20;93.50
44513;DHT22;30219;50.588;9.504;2022-07-06T01:14:57;15.30;93.50
44513;DHT22;30219;50.588;9.504;2022-07-06T01:17:23;15.20;93.60
44513;DHT22;30219;50.588;9.504;2022-07-06T01:19:49;15.10;93.70
44513;DHT22;30219;50.588;9.504;2022-07-06T01:22:15;15.10;93.70
44513;DHT22;30219;50.588;9.504;2022-07-06T01:24:41;15.00;94.10
44513;DHT22;30219;50.588;9.504;2022-07-06T01:27:07;15.00;94.30
44513;DHT22;30219;50.588;9.504;2022-07-06T01:29:34;15.00;94.10
44513;DHT22;30219;50.588;9.504;2022-07-06T01:32:00;14.90;94.40
44513;DHT22;30219;50.588;9.504;2022-07-06T01:34:25;15.00;94.40
44513;DHT22;30219;50.588;9.504;2022-07-06T01:36:51;14.90;94.80
44513;DHT22;30219;50.588;9.504;2022-07-06T01:39:17;15.00;94.90
44513;DHT22;30219;50.588;9.504;2022-07-06T01:41:43;14.80;95.00
44513;DHT22;30219;50.588;9.504;2022-07-06T01:44:09;14.90;95.10
44513;DHT22;30219;50.588;9.504;2022-07-06T01:46:34;14.80;95.40
44513;DHT22;30219;50.588;9.504;2022-07-06T01:49:00;14.70;95.60
44513;DHT22;30219;50.588;9.504;2022-07-06T01:51:26;14.70;95.60
44513;DHT22;30219;50.588;9.504;2022-07-06T01:53:52;14.60;96.10
44513;DHT22;30219;50.588;9.504;2022-07-06T01:56:18;14.50;96.40
44513;DHT22;30219;50.588;9.504;2022-07-06T01:58:45;14.60;96.40
44513;DHT22;30219;50.588;9.504;2022-07-06T02:01:15;14.60;96.50
44513;DHT22;30219;50.588;9.504;2022-07-06T02:03:42;14.60;96.70
44513;DHT22;30219;50.588;9.504;2022-07-06T02:06:08;14.60;96.80
44513;DHT22;30219;50.588;9.504;2022-07-06T02:08:35;14.30;96.80
44513;DHT22;30219;50.588;9.504;2022-07-06T02:11:05;14.20;97.60
44513;DHT22;30219;50.588;9.504;2022-07-06T02:13:31;14.10;98.10
44513;DHT22;30219;50.588;9.504;2022-07-06T02:15:56;14.10;98.40
44513;DHT22;30219;50.588;9.504;2022-07-06T02:18:22;14.10;98.40
44513;DHT22;30219;50.588;9.504;2022-07-06T02:20:48;14.00;98.60
44513;DHT22;30219;50.588;9.504;2022-07-06T02:23:13;14.00;99.20
44513;DHT22;30219;50.588;9.504;2022-07-06T02:25:39;13.90;99.30
44513;DHT22;30219;50.588;9.504;2022-07-06T02:28:04;13.70;99.70
44513;DHT22;30219;50.588;9.504;2022-07-06T02:30:30;13.70;99.90
44513;DHT22;30219;50.588;9.504;2022-07-06T02:32:56;13.70;99.90
44513;DHT22;30219;50.588;9.504;2022-07-06T02:35:21;13.60;99.90
44513;DHT22;30219;50.588;9.504;2022-07-06T02:37:47;13.60;99.90
44513;DHT22;30219;50.588;9.504;2022-07-06T02:40:13;13.60;99.90
44513;DHT22;30219;50.588;9.504;2022-07-06T02:42:39;13.70;99.90
44513;DHT22;30219;50.588;9.504;2022-07-06T02:45:05;13.60;99.90
44513;DHT22;30219;50.588;9.504;2022-07-06T02:47:31;13.50;99.90
44513;DHT22;30219;50.588;9.504;2022-07-06T02:49:57;13.40;99.90
44513;DHT22;30219;50.588;9.504;2022-07-06T02:52:23;13.40;99.90
44513;DHT22;30219;50.588;9.504;2022-07-06T02:54:48;13.50;99.90
44513;DHT22;30219;50.588;9.504;2022-07-06T02:57:15;13.50;99.90
44513;DHT22;30219;50.588;9.504;2022-07-06T02:59:40;13.50;99.90
44513;DHT22;30219;50.588;9.504;2022-07-06T03:02:06;13.20;99.90
44513;DHT22;30219;50.588;9.504;2022-07-06T03:04:33;13.00;99.90
44513;DHT22;30219;50.588;9.504;2022-07-06T03:06:58;12.90;99.90
44513;DHT22;30219;50.588;9.504;2022-07-06T03:09:24;12.80;99.90
44513;DHT22;30219;50.588;9.504;2022-07-06T03:11:50;12.70;99.90
44513;DHT22;30219;50.588;9.504;2022-07-06T03:14:15;12.60;99.90
44513;DHT22;30219;50.588;9.504;2022-07-06T03:16:41;12.60;99.90
44513;DHT22;30219;50.588;9.504;2022-07-06T03:19:07;12.70;99.90
44513;DHT22;30219;50.588;9.504;2022-07-06T03:21:32;12.70;99.90
44513;DHT22;30219;50.588;9.504;2022-07-06T03:23:58;12.50;99.90
44513;DHT22;30219;50.588;9.504;2022-07-06T03:26:24;12.50;99.90
44513;DHT22;30219;50.588;9.504;2022-07-06T03:28:49;12.60;99.90
44513;DHT22;30219;50.588;9.504;2022-07-06T03:31:15;12.60;99.90
44513;DHT22;30219;50.588;9.504;2022-07-06T03:33:41;12.60;99.90
44513;DHT22;30219;50.588;9.504;2022-07-06T03:36:07;12.70;99.90
44513;DHT22;30219;50.588;9.504;2022-07-06T03:38:33;12.60;99.90
44513;DHT22;30219;50.588;9.504;2022-07-06T03:40:59;12.40;99.90
44513;DHT22;30219;50.588;9.504;2022-07-06T03:43:24;12.30;99.90
44513;DHT22;30219;50.588;9.504;2022-07-06T03:45:50;12.40;99.90
44513;DHT22;30219;50.588;9.504;2022-07-06T03:48:16;12.40;99.90
44513;DHT22;30219;50.588;9.504;2022-07-06T03:50:41;12.40;99.90
44513;DHT22;30219;50.588;9.504;2022-07-06T03:53:07;12.30;99.90
44513;DHT22;30219;50.588;9.504;2022-07-06T03:55:32;12.30;99.90
44513;DHT22;30219;50.588;9.504;2022-07-06T03:57:58;12.40;99.90
44513;DHT22;30219;50.588;9.504;2022-07-06T04:00:23;12.50;99.90
44513;DHT22;30219;50.588;9.504;2022-07-06T04:02:49;12.60;99.90
44513;DHT22;30219;50.588;9.504;2022-07-06T04:05:15;12.50;99.90
44513;DHT22;30219;50.588;9.504;2022-07-06T04:07:40;12.40;99.90
44513;DHT22;30219;50.588;9.504;2022-07-06T04:10:07;12.50;99.90
44513;DHT22;30219;50.588;9.504;2022-07-06T04:12:42;12.60;99.90
44513;DHT22;30219;50.588;9.504;2022-07-06T04:15:09;12.90;99.90
44513;DHT22;30219;50.588;9.504;2022-07-06T04:17:35;13.00;99.90
44513;DHT22;30219;50.588;9.504;2022-07-06T04:20:20;13.00;99.90
44513;DHT22;30219;50.588;9.504;2022-07-06T04:22:46;13.00;99.90
44513;DHT22;30219;50.588;9.504;2022-07-06T04:25:12;12.90;99.90
44513;DHT22;30219;50.588;9.504;2022-07-06T04:27:38;12.90;99.90
44513;DHT22;30219;50.588;9.504;2022-07-06T04:30:04;12.90;99.90
44513;DHT22;30219;50.588;9.504;2022-07-06T04:32:30;13.00;99.90
44513;DHT22;30219;50.588;9.504;2022-07-06T04:34:56;13.10;99.90
44513;DHT22;30219;50.588;9.504;2022-07-06T04:37:22;13.30;99.90
44513;DHT22;30219;50.588;9.504;2022-07-06T04:39:47;13.60;99.90
44513;DHT22;30219;50.588;9.504;2022-07-06T04:42:13;13.80;99.90
44513;DHT22;30219;50.588;9.504;2022-07-06T04:44:39;14.10;99.90
44513;DHT22;30219;50.588;9.504;2022-07-06T04:47:04;14.20;99.90
44513;DHT22;30219;50.588;9.504;2022-07-06T04:49:30;14.30;99.90
44513;DHT22;30219;50.588;9.504;2022-07-06T04:51:56;14.40;99.90
44513;DHT22;30219;50.588;9.504;2022-07-06T04:54:22;14.60;99.90
44513;DHT22;30219;50.588;9.504;2022-07-06T04:56:47;14.80;99.90
44513;DHT22;30219;50.588;9.504;2022-07-06T04:59:14;15.00;99.90
44513;DHT22;30219;50.588;9.504;2022-07-06T05:01:39;15.30;99.90
44513;DHT22;30219;50.588;9.504;2022-07-06T05:04:06;15.60;99.90
44513;DHT22;30219;50.588;9.504;2022-07-06T05:06:32;15.80;99.90
44513;DHT22;30219;50.588;9.504;2022-07-06T05:08:58;16.00;99.90
44513;DHT22;30219;50.588;9.504;2022-07-06T05:11:25;16.20;99.90
44513;DHT22;30219;50.588;9.504;2022-07-06T05:13:52;16.50;99.90
44513;DHT22;30219;50.588;9.504;2022-07-06T05:16:17;16.80;99.90
44513;DHT22;30219;50.588;9.504;2022-07-06T05:18:43;17.20;99.90
44513;DHT22;30219;50.588;9.504;2022-07-06T05:21:09;17.60;99.20
44513;DHT22;30219;50.588;9.504;2022-07-06T05:23:34;18.00;98.40
44513;DHT22;30219;50.588;9.504;2022-07-06T05:26:00;18.40;97.40
44513;DHT22;30219;50.588;9.504;2022-07-06T05:28:25;18.70;96.70
44513;DHT22;30219;50.588;9.504;2022-07-06T05:30:51;18.90;95.80
44513;DHT22;30219;50.588;9.504;2022-07-06T05:33:17;19.00;95.40
44513;DHT22;30219;50.588;9.504;2022-07-06T05:35:42;19.20;94.90
44513;DHT22;30219;50.588;9.504;2022-07-06T05:38:08;19.40;94.60
44513;DHT22;30219;50.588;9.504;2022-07-06T05:40:33;19.70;93.90
44513;DHT22;30219;50.588;9.504;2022-07-06T05:42:59;19.70;93.80
44513;DHT22;30219;50.588;9.504;2022-07-06T05:45:24;19.80;93.50
44513;DHT22;30219;50.588;9.504;2022-07-06T05:47:50;19.80;92.70
44513;DHT22;30219;50.588;9.504;2022-07-06T05:50:34;19.60;93.30
44513;DHT22;30219;50.588;9.504;2022-07-06T05:53:02;19.60;93.40
44513;DHT22;30219;50.588;9.504;2022-07-06T05:55:28;19.60;93.30
44513;DHT22;30219;50.588;9.504;2022-07-06T05:57:54;19.40;93.50
44513;DHT22;30219;50.588;9.504;2022-07-06T06:00:22;19.30;93.50
44513;DHT22;30219;50.588;9.504;2022-07-06T06:02:48;19.00;93.70
44513;DHT22;30219;50.588;9.504;2022-07-06T06:05:14;18.70;94.10
44513;DHT22;30219;50.588;9.504;2022-07-06T06:07:40;18.40;94.60
44513;DHT22;30219;50.588;9.504;2022-07-06T06:10:11;18.30;94.80
44513;DHT22;30219;50.588;9.504;2022-07-06T06:12:38;18.30;94.90
44513;DHT22;30219;50.588;9.504;2022-07-06T06:15:04;18.20;95.10
44513;DHT22;30219;50.588;9.504;2022-07-06T06:17:31;18.20;95.20
44513;DHT22;30219;50.588;9.504;2022-07-06T06:19:57;18.10;95.30
44513;DHT22;30219;50.588;9.504;2022-07-06T06:22:23;18.40;95.40
44513;DHT22;30219;50.588;9.504;2022-07-06T06:24:48;19.00;94.90
44513;DHT22;30219;50.588;9.504;2022-07-06T06:27:14;19.50;94.00
44513;DHT22;30219;50.588;9.504;2022-07-06T06:29:39;19.60;93.30
44513;DHT22;30219;50.588;9.504;2022-07-06T06:32:07;19.50;93.30
44513;DHT22;30219;50.588;9.504;2022-07-06T06:34:32;19.60;93.20
44513;DHT22;30219;50.588;9.504;2022-07-06T06:36:58;19.90;92.50
44513;DHT22;30219;50.588;9.504;2022-07-06T06:39:24;20.50;92.40
44513;DHT22;30219;50.588;9.504;2022-07-06T06:41:49;20.90;91.10
44513;DHT22;30219;50.588;9.504;2022-07-06T06:44:15;21.40;90.90
44513;DHT22;30219;50.588;9.504;2022-07-06T06:46:41;21.80;90.50
44513;DHT22;30219;50.588;9.504;2022-07-06T06:49:07;22.20;89.60
44513;DHT22;30219;50.588;9.504;2022-07-06T06:51:33;22.40;87.90
44513;DHT22;30219;50.588;9.504;2022-07-06T06:53:59;22.60;86.60
44513;DHT22;30219;50.588;9.504;2022-07-06T06:56:24;22.90;85.80
44513;DHT22;30219;50.588;9.504;2022-07-06T06:58:50;23.30;85.20
44513;DHT22;30219;50.588;9.504;2022-07-06T07:01:16;23.70;84.30
44513;DHT22;30219;50.588;9.504;2022-07-06T07:03:41;23.70;82.70
44513;DHT22;30219;50.588;9.504;2022-07-06T07:06:07;23.50;82.10
44513;DHT22;30219;50.588;9.504;2022-07-06T07:08:33;23.10;82.40
44513;DHT22;30219;50.588;9.504;2022-07-06T07:10:58;22.90;82.20
44513;DHT22;30219;50.588;9.504;2022-07-06T07:13:24;22.20;82.80
44513;DHT22;30219;50.588;9.504;2022-07-06T07:15:50;21.70;83.80
44513;DHT22;30219;50.588;9.504;2022-07-06T07:18:15;21.40;84.10
44513;DHT22;30219;50.588;9.504;2022-07-06T07:20:41;21.60;84.20
44513;DHT22;30219;50.588;9.504;2022-07-06T07:23:07;22.10;84.10
44513;DHT22;30219;50.588;9.504;2022-07-06T07:25:32;22.70;83.30
44513;DHT22;30219;50.588;9.504;2022-07-06T07:27:58;23.00;81.40
44513;DHT22;30219;50.588;9.504;2022-07-06T07:30:23;22.70;81.00
44513;DHT22;30219;50.588;9.504;2022-07-06T07:32:49;23.20;80.80
44513;DHT22;30219;50.588;9.504;2022-07-06T07:35:14;22.80;80.50
44513;DHT22;30219;50.588;9.504;2022-07-06T07:37:40;22.60;81.20
44513;DHT22;30219;50.588;9.504;2022-07-06T07:40:06;22.40;81.40
44513;DHT22;30219;50.588;9.504;2022-07-06T07:42:32;22.00;81.00
44513;DHT22;30219;50.588;9.504;2022-07-06T07:44:58;21.80;80.60
44513;DHT22;30219;50.588;9.504;2022-07-06T07:47:23;21.80;81.30
44513;DHT22;30219;50.588;9.504;2022-07-06T07:49:49;21.90;81.70
44513;DHT22;30219;50.588;9.504;2022-07-06T07:52:14;22.00;81.90
44513;DHT22;30219;50.588;9.504;2022-07-06T07:54:40;22.10;81.30
44513;DHT22;30219;50.588;9.504;2022-07-06T07:57:06;22.20;80.40
44513;DHT22;30219;50.588;9.504;2022-07-06T07:59:32;22.90;80.60
44513;DHT22;30219;50.588;9.504;2022-07-06T08:01:57;23.70;78.10
44513;DHT22;30219;50.588;9.504;2022-07-06T08:04:23;24.40;75.90
44513;DHT22;30219;50.588;9.504;2022-07-06T08:06:49;24.90;74.80
44513;DHT22;30219;50.588;9.504;2022-07-06T08:09:15;25.00;72.40
44513;DHT22;30219;50.588;9.504;2022-07-06T08:11:42;24.20;72.90
44513;DHT22;30219;50.588;9.504;2022-07-06T08:14:08;24.00;72.70
44513;DHT22;30219;50.588;9.504;2022-07-06T08:16:34;23.70;74.30
44513;DHT22;30219;50.588;9.504;2022-07-06T08:18:59;23.40;74.60
44513;DHT22;30219;50.588;9.504;2022-07-06T08:21:25;23.60;74.10
44513;DHT22;30219;50.588;9.504;2022-07-06T08:23:51;23.80;74.30
44513;DHT22;30219;50.588;9.504;2022-07-06T08:26:17;23.80;74.00
44513;DHT22;30219;50.588;9.504;2022-07-06T08:28:43;23.90;73.30
44513;DHT22;30219;50.588;9.504;2022-07-06T08:31:08;23.20;72.80
44513;DHT22;30219;50.588;9.504;2022-07-06T08:33:34;22.60;75.20
44513;DHT22;30219;50.588;9.504;2022-07-06T08:35:59;23.20;75.90
44513;DHT22;30219;50.588;9.504;2022-07-06T08:38:25;23.60;74.80
44513;DHT22;30219;50.588;9.504;2022-07-06T08:40:51;23.70;74.20
44513;DHT22;30219;50.588;9.504;2022-07-06T08:43:17;23.60;73.40
44513;DHT22;30219;50.588;9.504;2022-07-06T08:45:43;23.80;73.60
44513;DHT22;30219;50.588;9.504;2022-07-06T08:48:10;24.10;73.40
44513;DHT22;30219;50.588;9.504;2022-07-06T08:50:37;24.50;72.10
44513;DHT22;30219;50.588;9.504;2022-07-06T08:53:03;24.80;71.00
44513;DHT22;30219;50.588;9.504;2022-07-06T08:55:29;24.50;71.30
44513;DHT22;30219;50.588;9.504;2022-07-06T08:57:55;25.00;70.80
44513;DHT22;30219;50.588;9.504;2022-07-06T09:00:23;25.60;69.90
44513;DHT22;30219;50.588;9.504;2022-07-06T09:02:50;25.90;68.90
44513;DHT22;30219;50.588;9.504;2022-07-06T09:05:20;26.20;68.00
44513;DHT22;30219;50.588;9.504;2022-07-06T09:07:50;26.30;68.10
44513;DHT22;30219;50.588;9.504;2022-07-06T09:10:18;26.60;67.30
44513;DHT22;30219;50.588;9.504;2022-07-06T09:12:44;26.50;65.80
44513;DHT22;30219;50.588;9.504;2022-07-06T09:15:10;26.00;66.00
44513;DHT22;30219;50.588;9.504;2022-07-06T09:17:40;25.80;66.70
44513;DHT22;30219;50.588;9.504;2022-07-06T09:20:08;25.90;67.70
44513;DHT22;30219;50.588;9.504;2022-07-06T09:22:35;25.80;67.00
44513;DHT22;30219;50.588;9.504;2022-07-06T09:25:12;26.00;66.60
44513;DHT22;30219;50.588;9.504;2022-07-06T09:27:42;26.20;64.80
44513;DHT22;30219;50.588;9.504;2022-07-06T09:30:09;25.90;64.50
44513;DHT22;30219;50.588;9.504;2022-07-06T09:32:44;26.00;63.20
44513;DHT22;30219;50.588;9.504;2022-07-06T09:35:36;26.40;62.60
44513;DHT22;30219;50.588;9.504;2022-07-06T09:38:04;26.30;63.50
44513;DHT22;30219;50.588;9.504;2022-07-06T09:40:36;26.80;64.70
44513;DHT22;30219;50.588;9.504;2022-07-06T09:43:17;27.40;63.70
44513;DHT22;30219;50.588;9.504;2022-07-06T09:45:49;27.00;63.50
44513;DHT22;30219;50.588;9.504;2022-07-06T09:48:16;26.70;65.20
44513;DHT22;30219;50.588;9.504;2022-07-06T09:50:53;26.10;66.40
44513;DHT22;30219;50.588;9.504;2022-07-06T09:53:21;26.20;67.10
44513;DHT22;30219;50.588;9.504;2022-07-06T09:55:48;26.30;67.10
44513;DHT22;30219;50.588;9.504;2022-07-06T09:58:18;26.20;66.30
44513;DHT22;30219;50.588;9.504;2022-07-06T10:00:45;25.90;66.20
44513;DHT22;30219;50.588;9.504;2022-07-06T10:03:12;25.30;66.80
44513;DHT22;30219;50.588;9.504;2022-07-06T10:05:39;25.20;67.00
44513;DHT22;30219;50.588;9.504;2022-07-06T10:08:06;25.70;66.70
44513;DHT22;30219;50.588;9.504;2022-07-06T10:10:35;26.20;65.20
44513;DHT22;30219;50.588;9.504;2022-07-06T10:13:01;26.70;65.80
44513;DHT22;30219;50.588;9.504;2022-07-06T10:15:28;27.10;64.80
44513;DHT22;30219;50.588;9.504;2022-07-06T10:17:55;27.60;64.50
44513;DHT22;30219;50.588;9.504;2022-07-06T10:20:21;28.10;62.80
44513;DHT22;30219;50.588;9.504;2022-07-06T10:22:48;28.00;61.70
44513;DHT22;30219;50.588;9.504;2022-07-06T10:25:17;27.90;60.30
44513;DHT22;30219;50.588;9.504;2022-07-06T10:27:45;27.50;60.70
44513;DHT22;30219;50.588;9.504;2022-07-06T10:30:11;27.40;60.00
44513;DHT22;30219;50.588;9.504;2022-07-06T10:32:39;27.70;60.80
44513;DHT22;30219;50.588;9.504;2022-07-06T10:35:07;27.60;59.20
44513;DHT22;30219;50.588;9.504;2022-07-06T10:37:33;26.90;60.10
44513;DHT22;30219;50.588;9.504;2022-07-06T10:39:59;26.50;60.60
44513;DHT22;30219;50.588;9.504;2022-07-06T10:42:56;26.50;61.90
44513;DHT22;30219;50.588;9.504;2022-07-06T10:48:39;27.40;63.20
44513;DHT22;30219;50.588;9.504;2022-07-06T10:50:49;27.80;62.60
44513;DHT22;30219;50.588;9.504;2022-07-06T10:53:17;28.30;61.50
44513;DHT22;30219;50.588;9.504;2022-07-06T10:55:45;28.80;60.80
44513;DHT22;30219;50.588;9.504;2022-07-06T11:00:59;28.80;60.00
44513;DHT22;30219;50.588;9.504;2022-07-06T11:11:24;28.80;59.30
44513;DHT22;30219;50.588;9.504;2022-07-06T11:13:53;29.10;58.70
44513;DHT22;30219;50.588;9.504;2022-07-06T11:16:20;28.80;58.20
44513;DHT22;30219;50.588;9.504;2022-07-06T11:18:59;29.00;58.40
44513;DHT22;30219;50.588;9.504;2022-07-06T11:21:38;28.70;57.60
44513;DHT22;30219;50.588;9.504;2022-07-06T11:24:06;28.30;57.40
44513;DHT22;30219;50.588;9.504;2022-07-06T11:26:32;28.40;58.30
44513;DHT22;30219;50.588;9.504;2022-07-06T11:28:59;28.50;58.30
44513;DHT22;30219;50.588;9.504;2022-07-06T11:31:27;28.60;58.10
44513;DHT22;30219;50.588;9.504;2022-07-06T11:33:53;28.30;57.50
44513;DHT22;30219;50.588;9.504;2022-07-06T11:36:21;28.20;58.10
44513;DHT22;30219;50.588;9.504;2022-07-06T11:38:48;27.80;57.70
44513;DHT22;30219;50.588;9.504;2022-07-06T11:41:15;27.40;57.70
44513;DHT22;30219;50.588;9.504;2022-07-06T11:43:43;27.40;57.90
44513;DHT22;30219;50.588;9.504;2022-07-06T11:48:53;28.10;57.70
44513;DHT22;30219;50.588;9.504;2022-07-06T11:51:19;28.40;57.30
44513;DHT22;30219;50.588;9.504;2022-07-06T11:53:47;28.60;57.30
44513;DHT22;30219;50.588;9.504;2022-07-06T11:56:17;28.40;57.30
44513;DHT22;30219;50.588;9.504;2022-07-06T11:58:49;28.20;57.60
44513;DHT22;30219;50.588;9.504;2022-07-06T12:01:15;28.40;57.50
44513;DHT22;30219;50.588;9.504;2022-07-06T12:03:42;28.40;57.10
44513;DHT22;30219;50.588;9.504;2022-07-06T12:06:22;27.50;56.50
44513;DHT22;30219;50.588;9.504;2022-07-06T12:08:50;27.60;57.90
44513;DHT22;30219;50.588;9.504;2022-07-06T12:11:20;27.50;57.60
44513;DHT22;30219;50.588;9.504;2022-07-06T12:13:47;27.70;58.60
44513;DHT22;30219;50.588;9.504;2022-07-06T12:16:13;27.90;57.50
44513;DHT22;30219;50.588;9.504;2022-07-06T12:18:40;27.80;56.20
44513;DHT22;30219;50.588;9.504;2022-07-06T12:21:12;27.40;56.90
44513;DHT22;30219;50.588;9.504;2022-07-06T12:23:48;27.20;57.10
44513;DHT22;30219;50.588;9.504;2022-07-06T12:26:16;26.90;56.80
44513;DHT22;30219;50.588;9.504;2022-07-06T12:28:43;26.70;57.90
44513;DHT22;30219;50.588;9.504;2022-07-06T12:31:09;26.70;57.50
44513;DHT22;30219;50.588;9.504;2022-07-06T12:33:35;26.40;57.60
44513;DHT22;30219;50.588;9.504;2022-07-06T12:36:14;26.60;58.10
44513;DHT22;30219;50.588;9.504;2022-07-06T12:38:45;26.70;57.10
44513;DHT22;30219;50.588;9.504;2022-07-06T12:41:24;26.50;57.50
44513;DHT22;30219;50.588;9.504;2022-07-06T12:44:04;26.70;58.80
44513;DHT22;30219;50.588;9.504;2022-07-06T12:46:33;26.90;57.50
44513;DHT22;30219;50.588;9.504;2022-07-06T12:49:02;26.80;57.40
44513;DHT22;30219;50.588;9.504;2022-07-06T12:51:28;27.10;57.60
44513;DHT22;30219;50.588;9.504;2022-07-06T12:54:12;27.30;56.90
44513;DHT22;30219;50.588;9.504;2022-07-06T12:56:58;27.40;57.10
44513;DHT22;30219;50.588;9.504;2022-07-06T12:59:24;27.70;56.80
44513;DHT22;30219;50.588;9.504;2022-07-06T13:01:50;27.60;56.20
44513;DHT22;30219;50.588;9.504;2022-07-06T13:04:23;27.50;56.50
44513;DHT22;30219;50.588;9.504;2022-07-06T13:06:49;27.50;56.10
44513;DHT22;30219;50.588;9.504;2022-07-06T13:09:14;27.40;57.20
44513;DHT22;30219;50.588;9.504;2022-07-06T13:11:42;27.70;56.50
44513;DHT22;30219;50.588;9.504;2022-07-06T13:14:07;27.40;56.00
44513;DHT22;30219;50.588;9.504;2022-07-06T13:16:35;27.00;55.80
44513;DHT22;30219;50.588;9.504;2022-07-06T13:19:03;27.00;56.20
44513;DHT22;30219;50.588;9.504;2022-07-06T13:21:29;27.00;56.30
44513;DHT22;30219;50.588;9.504;2022-07-06T13:23:55;27.10;56.50
44513;DHT22;30219;50.588;9.504;2022-07-06T13:26:20;27.20;56.10
44513;DHT22;30219;50.588;9.504;2022-07-06T13:28:46;27.20;56.30
44513;DHT22;30219;50.588;9.504;2022-07-06T13:31:11;27.40;56.00
44513;DHT22;30219;50.588;9.504;2022-07-06T13:33:37;27.50;55.90
44513;DHT22;30219;50.588;9.504;2022-07-06T13:36:03;27.60;55.70
44513;DHT22;30219;50.588;9.504;2022-07-06T13:38:29;27.80;55.70
44513;DHT22;30219;50.588;9.504;2022-07-06T13:40:55;27.80;56.10
44513;DHT22;30219;50.588;9.504;2022-07-06T13:43:21;27.70;56.00
44513;DHT22;30219;50.588;9.504;2022-07-06T13:45:47;27.50;55.40
44513;DHT22;30219;50.588;9.504;2022-07-06T13:48:13;27.30;55.60
44513;DHT22;30219;50.588;9.504;2022-07-06T13:50:39;27.40;55.80
44513;DHT22;30219;50.588;9.504;2022-07-06T13:53:04;27.10;55.70
44513;DHT22;30219;50.588;9.504;2022-07-06T13:55:31;27.10;55.90
44513;DHT22;30219;50.588;9.504;2022-07-06T13:57:57;26.90;55.60
44513;DHT22;30219;50.588;9.504;2022-07-06T14:00:23;26.80;56.30
44513;DHT22;30219;50.588;9.504;2022-07-06T14:02:49;27.00;56.60
44513;DHT22;30219;50.588;9.504;2022-07-06T14:05:14;27.10;56.60
44513;DHT22;30219;50.588;9.504;2022-07-06T14:07:40;27.30;56.30
44513;DHT22;30219;50.588;9.504;2022-07-06T14:10:06;27.20;56.30
44513;DHT22;30219;50.588;9.504;2022-07-06T14:12:32;27.10;56.30
44513;DHT22;30219;50.588;9.504;2022-07-06T14:14:57;27.00;55.50
44513;DHT22;30219;50.588;9.504;2022-07-06T14:17:23;26.80;55.00
44513;DHT22;30219;50.588;9.504;2022-07-06T14:19:49;26.70;55.90
44513;DHT22;30219;50.588;9.504;2022-07-06T14:22:15;26.80;56.80
44513;DHT22;30219;50.588;9.504;2022-07-06T14:24:40;26.70;57.20
44513;DHT22;30219;50.588;9.504;2022-07-06T14:27:06;26.90;56.50
44513;DHT22;30219;50.588;9.504;2022-07-06T14:29:32;27.00;57.00
44513;DHT22;30219;50.588;9.504;2022-07-06T14:31:57;26.90;56.00
44513;DHT22;30219;50.588;9.504;2022-07-06T14:34:23;27.00;56.30
44513;DHT22;30219;50.588;9.504;2022-07-06T14:36:50;26.80;56.70
44513;DHT22;30219;50.588;9.504;2022-07-06T14:39:16;26.30;56.60
44513;DHT22;30219;50.588;9.504;2022-07-06T14:41:42;26.10;57.10
44513;DHT22;30219;50.588;9.504;2022-07-06T14:44:07;26.40;57.60
44513;DHT22;30219;50.588;9.504;2022-07-06T14:46:33;26.50;57.30
44513;DHT22;30219;50.588;9.504;2022-07-06T14:49:00;26.50;56.70
44513;DHT22;30219;50.588;9.504;2022-07-06T14:51:26;26.50;57.40
44513;DHT22;30219;50.588;9.504;2022-07-06T14:53:52;26.60;56.90
44513;DHT22;30219;50.588;9.504;2022-07-06T14:56:17;26.70;56.50
44513;DHT22;30219;50.588;9.504;2022-07-06T14:58:43;26.80;56.70
44513;DHT22;30219;50.588;9.504;2022-07-06T15:01:09;26.80;57.40
44513;DHT22;30219;50.588;9.504;2022-07-06T15:03:34;26.90;56.40
44513;DHT22;30219;50.588;9.504;2022-07-06T15:06:00;26.90;56.70
44513;DHT22;30219;50.588;9.504;2022-07-06T15:08:26;26.70;56.60
44513;DHT22;30219;50.588;9.504;2022-07-06T15:10:51;26.60;56.20
44513;DHT22;30219;50.588;9.504;2022-07-06T15:13:17;26.50;56.60
44513;DHT22;30219;50.588;9.504;2022-07-06T15:15:42;26.30;57.10
44513;DHT22;30219;50.588;9.504;2022-07-06T15:18:08;26.40;57.10
44513;DHT22;30219;50.588;9.504;2022-07-06T15:20:34;26.40;56.80
44513;DHT22;30219;50.588;9.504;2022-07-06T15:22:59;26.40;57.00
44513;DHT22;30219;50.588;9.504;2022-07-06T15:25:25;26.40;56.80
44513;DHT22;30219;50.588;9.504;2022-07-06T15:27:51;26.40;56.80
44513;DHT22;30219;50.588;9.504;2022-07-06T15:30:17;26.40;56.40
44513;DHT22;30219;50.588;9.504;2022-07-06T15:32:42;26.20;56.50
44513;DHT22;30219;50.588;9.504;2022-07-06T15:35:08;26.20;56.60
44513;DHT22;30219;50.588;9.504;2022-07-06T15:37:34;25.80;57.20
44513;DHT22;30219;50.588;9.504;2022-07-06T15:40:01;25.80;57.60
44513;DHT22;30219;50.588;9.504;2022-07-06T15:42:28;26.00;57.00
44513;DHT22;30219;50.588;9.504;2022-07-06T15:44:53;26.10;57.30